Time;durP1;ratioP1;P1;durP2;ratioP2;P2;SDS_P1;SDS_P2;PMS_P1;PMS_P2;Temp;Humidity;BMP_temperature;BMP_pressure;BME280_temperature;BME280_humidity;BME280_pressure;Samples;Min_cycle;Max_cycle;Signal;HPM_P1;HPM_P2
2021/05/08 00:02:25;;;;;;;;;;;;;;;19.05;67.38;100053.47;5016430;28;1375;-54
2021/05/08 00:04:51;;;;;;;;;;;;;;;19.04;67.23;100046.44;5016434;28;988;-54
2021/05/08 00:07:17;;;;;;;;;;;;;;;19.04;67.31;100041.06;5016346;28;994;-54
2021/05/08 00:09:44;;;;;;;;;;;;;;;19.05;67.25;100033.88;5016087;28;1032;-54
2021/05/08 00:12:10;;;;;;;;;;;;;;;19.06;67.44;100049.81;5015759;28;1918;-53
2021/05/08 00:14:36;;;;;;;;;;;;;;;19.06;67.64;100065.88;5016024;28;1059;-54
2021/05/08 00:17:02;;;;;;;;;;;;;;;19.06;67.36;100051.66;5016257;28;1078;-54
2021/05/08 00:19:28;;;;;;;;;;;;;;;19.06;67.16;100059.69;5015839;28;1068;-54
2021/05/08 00:21:54;;;;;;;;;;;;;;;19.07;67.14;100056.84;5016182;28;991;-54
2021/05/08 00:24:20;;;;;;;;;;;;;;;19.05;67.58;100061.50;5015474;28;1052;-54
2021/05/08 00:26:47;;;;;;;;;;;;;;;19.04;66.90;100062.50;5015817;28;1111;-54
2021/05/08 00:29:13;;;;;;;;;;;;;;;19.04;67.33;100054.47;5015997;28;1067;-54
2021/05/08 00:31:39;;;;;;;;;;;;;;;19.07;67.67;100070.22;5015530;28;1910;-54
2021/05/08 00:34:06;;;;;;;;;;;;;;;19.05;67.15;100069.53;5015992;28;999;-54
2021/05/08 00:36:33;;;;;;;;;;;;;;;19.04;67.21;100062.50;5015670;28;1087;-54
2021/05/08 00:38:59;;;;;;;;;;;;;;;19.05;67.04;100061.50;5015880;28;1066;-53
2021/05/08 00:41:25;;;;;;;;;;;;;;;19.05;67.44;100066.03;5015530;28;1154;-54
2021/05/08 00:43:55;;;;;;;;;;;;;;;19.05;67.31;100069.53;5015765;28;1003;-54
2021/05/08 00:46:21;;;;;;;;;;;;;;;19.05;67.32;100068.72;5015411;28;1008;-54
2021/05/08 00:48:47;;;;;;;;;;;;;;;19.04;67.09;100078.59;5015677;28;971;-54
2021/05/08 00:51:13;;;;;;;;;;;;;;;19.04;67.59;100080.44;5015629;28;1902;-54
2021/05/08 00:53:39;;;;;;;;;;;;;;;19.03;67.27;100079.56;5015551;28;999;-54
2021/05/08 00:56:06;;;;;;;;;;;;;;;19.05;67.51;100076.75;5015239;28;1051;-53
2021/05/08 00:58:32;;;;;;;;;;;;;;;19.05;67.60;100084.78;5015323;28;1028;-54
2021/05/08 01:00:59;;;;;;;;;;;;;;;19.04;67.40;100077.75;5015520;28;1456;-53
2021/05/08 01:03:25;;;;;;;;;;;;;;;19.04;67.01;100100.03;5015508;28;988;-54
2021/05/08 01:05:51;;;;;;;;;;;;;;;19.05;66.90;100095.50;5015184;28;1072;-54
2021/05/08 01:08:17;;;;;;;;;;;;;;;19.05;67.33;100117.78;5015039;28;1060;-54
2021/05/08 01:10:43;;;;;;;;;;;;;;;19.04;67.66;100113.44;5014882;28;1918;-54
2021/05/08 01:13:09;;;;;;;;;;;;;;;19.06;67.23;100124.00;5015378;28;1077;-54
2021/05/08 01:15:35;;;;;;;;;;;;;;;19.05;67.44;100133.03;5015348;28;983;-54
2021/05/08 01:18:02;;;;;;;;;;;;;;;19.05;67.20;100131.19;5015002;28;1116;-54
2021/05/08 01:20:28;;;;;;;;;;;;;;;19.05;67.10;100141.91;5014926;28;1103;-54
2021/05/08 01:22:55;;;;;;;;;;;;;;;19.04;67.46;100150.09;5014909;28;1068;-54
2021/05/08 01:25:22;;;;;;;;;;;;;;;19.05;66.76;100157.13;5015227;28;975;-54
2021/05/08 01:27:49;;;;;;;;;;;;;;;19.05;67.21;100168.69;5015138;28;1095;-54
2021/05/08 01:30:17;;;;;;;;;;;;;;;19.02;67.47;100169.00;5014893;28;1040;-54
2021/05/08 01:32:43;;;;;;;;;;;;;;;19.04;67.39;100174.22;5014745;28;1910;-54
2021/05/08 01:35:09;;;;;;;;;;;;;;;19.03;66.85;100175.19;5015165;28;950;-54
2021/05/08 01:37:35;;;;;;;;;;;;;;;19.04;67.12;100184.94;5017502;28;1084;-54
2021/05/08 01:40:06;;;;;;;;;;;;;;;19.05;67.49;100190.13;5018847;28;1118;-54
2021/05/08 01:42:32;;;;;;;;;;;;;;;19.03;67.51;100200.16;5018845;28;1053;-54
2021/05/08 01:45:04;;;;;;;;;;;;;;;19.03;66.97;100210.88;5019055;28;1066;-54
2021/05/08 01:47:30;;;;;;;;;;;;;;;19.05;67.40;100208.88;5018726;28;1056;-54
2021/05/08 01:49:56;;;;;;;;;;;;;;;19.05;67.11;100221.44;5018992;28;1035;-54
2021/05/08 01:52:22;;;;;;;;;;;;;;;19.05;67.33;100243.72;5018824;28;1969;-54
2021/05/08 01:54:48;;;;;;;;;;;;;;;19.04;67.19;100243.91;5018571;28;1043;-54
2021/05/08 01:57:15;;;;;;;;;;;;;;;19.03;67.08;100243.03;5018800;28;971;-54
2021/05/08 01:59:41;;;;;;;;;;;;;;;19.05;67.09;100262.47;5018778;28;1038;-54
2021/05/08 02:02:07;;;;;;;;;;;;;;;19.04;67.08;100274.22;5030047;23;2100;-44
2021/05/08 02:04:33;;;;;;;;;;;;;;;19.03;67.48;100275.19;5017473;28;1011;-44
2021/05/08 02:07:00;;;;;;;;;;;;;;;19.04;67.17;100292.13;5017449;28;1082;-44
2021/05/08 02:09:26;;;;;;;;;;;;;;;19.04;67.32;100297.50;5017341;28;1067;-44
2021/05/08 02:11:52;;;;;;;;;;;;;;;19.03;67.69;100296.63;5030493;23;3770;-54
2021/05/08 02:14:19;;;;;;;;;;;;;;;19.02;67.00;100305.66;5017826;28;1459;-54
2021/05/08 02:16:45;;;;;;;;;;;;;;;19.02;67.48;100315.53;5018478;28;1071;-54
2021/05/08 02:19:10;;;;;;;;;;;;;;;19.02;67.29;100326.25;5018325;28;1038;-54
2021/05/08 02:21:37;;;;;;;;;;;;;;;19.04;67.31;100326.97;5018462;28;1890;-54
2021/05/08 02:24:05;;;;;;;;;;;;;;;19.03;67.18;100311.88;5018249;28;983;-54
2021/05/08 02:26:31;;;;;;;;;;;;;;;19.01;67.10;100314.69;5017942;28;968;-54
2021/05/08 02:28:57;;;;;;;;;;;;;;;19.00;67.19;100329.09;5017962;28;1102;-54
2021/05/08 02:31:24;;;;;;;;;;;;;;;19.03;67.47;100327.94;5017884;28;1906;-54
2021/05/08 02:33:50;;;;;;;;;;;;;;;19.02;67.21;100339.63;5017830;28;1055;-54
2021/05/08 02:36:16;;;;;;;;;;;;;;;19.04;67.63;100333.16;5018068;28;1093;-54
2021/05/08 02:38:42;;;;;;;;;;;;;;;19.03;67.61;100352.91;5018125;28;1066;-54
2021/05/08 02:41:08;;;;;;;;;;;;;;;19.03;67.44;100355.59;5017777;28;1051;-54
2021/05/08 02:43:33;;;;;;;;;;;;;;;19.01;67.48;100349.53;5017935;28;1062;-54
2021/05/08 02:45:59;;;;;;;;;;;;;;;19.02;67.39;100361.94;5017686;28;1059;-54
2021/05/08 02:48:26;;;;;;;;;;;;;;;19.02;67.34;100378.03;5017606;28;987;-54
2021/05/08 02:50:52;;;;;;;;;;;;;;;19.02;67.42;100383.38;5017779;28;1910;-54
2021/05/08 02:53:18;;;;;;;;;;;;;;;19.03;67.62;100389.59;5017710;28;1070;-54
2021/05/08 02:55:44;;;;;;;;;;;;;;;19.02;67.24;100398.59;5017451;28;1063;-54
2021/05/08 02:58:10;;;;;;;;;;;;;;;19.01;67.00;100400.44;5017728;28;1075;-54
2021/05/08 03:00:36;;;;;;;;;;;;;;;19.00;67.67;100408.63;5017880;28;2004;-54
2021/05/08 03:03:02;;;;;;;;;;;;;;;19.00;67.34;100404.13;5017284;28;1539;-54
2021/05/08 03:05:29;;;;;;;;;;;;;;;19.02;67.19;100418.22;5017544;28;987;-54
2021/05/08 03:07:55;;;;;;;;;;;;;;;19.01;67.57;100416.53;5017555;28;1053;-54
2021/05/08 03:10:21;;;;;;;;;;;;;;;19.00;67.23;100414.84;5017051;28;1206;-54
2021/05/08 03:12:47;;;;;;;;;;;;;;;19.01;67.27;100446.00;5017053;28;1906;-54
2021/05/08 03:15:13;;;;;;;;;;;;;;;19.00;67.23;100436.28;5017440;28;995;-54
2021/05/08 03:17:39;;;;;;;;;;;;;;;19.02;67.47;100436.13;5017316;28;982;-53
2021/05/08 03:20:06;;;;;;;;;;;;;;;19.02;67.27;100457.56;5017078;28;923;-54
2021/05/08 03:22:32;;;;;;;;;;;;;;;19.02;67.57;100461.09;5016954;28;1126;-54
2021/05/08 03:24:58;;;;;;;;;;;;;;;19.00;66.98;100457.72;5017208;28;1110;-54
2021/05/08 03:27:24;;;;;;;;;;;;;;;18.99;67.22;100472.09;5017155;28;995;-54
2021/05/08 03:29:50;;;;;;;;;;;;;;;18.98;67.37;100486.50;5016821;28;1043;-54
2021/05/08 03:32:16;;;;;;;;;;;;;;;19.00;67.20;100481.84;5017036;28;1972;-54
2021/05/08 03:34:42;;;;;;;;;;;;;;;18.99;67.08;100498.06;5016809;28;1106;-54
2021/05/08 03:37:08;;;;;;;;;;;;;;;18.99;67.25;100517.66;5017011;28;1043;-54
2021/05/08 03:39:35;;;;;;;;;;;;;;;18.98;67.19;100499.03;5016682;28;1059;-54
2021/05/08 03:42:01;;;;;;;;;;;;;;;18.97;66.96;100506.22;5016620;28;1063;-54
2021/05/08 03:44:27;;;;;;;;;;;;;;;19.00;67.14;100511.31;5016826;28;995;-53
2021/05/08 03:46:53;;;;;;;;;;;;;;;18.96;67.50;100520.63;5016834;28;1009;-54
2021/05/08 03:49:19;;;;;;;;;;;;;;;18.97;67.51;100511.59;5016770;28;1006;-54
2021/05/08 03:51:45;;;;;;;;;;;;;;;18.98;67.15;100540.09;5016367;28;1983;-54
2021/05/08 03:54:12;;;;;;;;;;;;;;;18.97;67.11;100538.38;5016754;28;987;-54
2021/05/08 03:56:39;;;;;;;;;;;;;;;18.99;67.19;100533.72;5016689;28;987;-54
2021/05/08 03:59:05;;;;;;;;;;;;;;;18.98;67.09;100534.72;5015944;28;1077;-54
2021/05/08 04:01:31;;;;;;;;;;;;;;;18.98;67.33;100550.81;5016222;28;1402;-53
2021/05/08 04:03:57;;;;;;;;;;;;;;;18.98;67.29;100561.53;5016561;28;1026;-54
2021/05/08 04:06:23;;;;;;;;;;;;;;;18.98;67.31;100569.56;5016135;28;1067;-54
2021/05/08 04:08:49;;;;;;;;;;;;;;;18.98;67.47;100582.97;5016426;28;988;-54
2021/05/08 04:11:15;;;;;;;;;;;;;;;18.98;67.26;100598.16;5016060;28;1975;-54
2021/05/08 04:13:42;;;;;;;;;;;;;;;19.00;67.25;100591.72;5016004;28;1077;-54
2021/05/08 04:16:08;;;;;;;;;;;;;;;19.00;67.21;100609.59;5016386;28;979;-54
2021/05/08 04:18:34;;;;;;;;;;;;;;;18.99;67.12;100616.78;5016158;28;1022;-54
2021/05/08 04:21:00;;;;;;;;;;;;;;;19.01;67.21;100632.75;5016256;28;1069;-54
2021/05/08 04:23:26;;;;;;;;;;;;;;;19.01;67.01;100649.66;5015921;28;1035;-54
2021/05/08 04:25:52;;;;;;;;;;;;;;;19.00;67.12;100644.44;5016099;28;987;-54
2021/05/08 04:28:18;;;;;;;;;;;;;;;19.00;66.96;100626.53;5015782;28;1123;-54
2021/05/08 04:30:45;;;;;;;;;;;;;;;19.01;67.01;100651.50;5016037;28;1007;-54
2021/05/08 04:33:11;;;;;;;;;;;;;;;19.04;66.96;100662.81;5016019;28;1971;-54
2021/05/08 04:35:37;;;;;;;;;;;;;;;19.07;67.07;100678.59;5015951;28;1081;-54
2021/05/08 04:38:03;;;;;;;;;;;;;;;19.07;67.07;100678.59;5015596;28;1126;-54
2021/05/08 04:40:29;;;;;;;;;;;;;;;19.08;66.85;100691.03;5015827;28;1061;-54
2021/05/08 04:42:55;;;;;;;;;;;;;;;19.07;67.05;100678.59;5015547;28;1043;-54
2021/05/08 04:45:24;;;;;;;;;;;;;;;19.04;67.10;100684.25;5015851;28;995;-54
2021/05/08 04:47:51;;;;;;;;;;;;;;;19.03;66.88;100697.78;5015754;28;1071;-54
2021/05/08 04:50:17;;;;;;;;;;;;;;;19.03;66.66;100693.25;5015452;28;1130;-54
2021/05/08 04:52:43;;;;;;;;;;;;;;;19.01;67.04;100683.66;5015479;28;1977;-54
2021/05/08 04:55:09;;;;;;;;;;;;;;;19.01;66.61;100697.91;5015630;28;1086;-54
2021/05/08 04:57:35;;;;;;;;;;;;;;;19.02;67.29;100704.09;5015460;28;1048;-53
2021/05/08 05:00:01;;;;;;;;;;;;;;;19.01;67.00;100705.94;5015597;28;1086;-54
2021/05/08 05:02:27;;;;;;;;;;;;;;;19.01;67.08;100705.94;5015437;28;1479;-54
2021/05/08 05:04:54;;;;;;;;;;;;;;;18.99;66.80;100705.22;5015168;28;1031;-53
2021/05/08 05:07:20;;;;;;;;;;;;;;;19.01;67.07;100713.97;5015186;28;1119;-54
2021/05/08 05:09:46;;;;;;;;;;;;;;;19.02;66.98;100718.38;5015650;28;984;-54
2021/05/08 05:12:12;;;;;;;;;;;;;;;19.02;66.91;100742.50;5014875;28;1888;-54
2021/05/08 05:14:40;;;;;;;;;;;;;;;19.01;67.12;100743.47;5015077;28;1106;-54
2021/05/08 05:17:06;;;;;;;;;;;;;;;19.02;66.88;100729.09;5015622;28;1992;-54
2021/05/08 05:19:32;;;;;;;;;;;;;;;19.01;67.20;100753.34;5015027;28;1103;-53
2021/05/08 05:21:59;;;;;;;;;;;;;;;19.03;67.10;100757.56;5015285;28;995;-54
2021/05/08 05:24:25;;;;;;;;;;;;;;;19.00;66.79;100757.00;5015199;28;974;-54
2021/05/08 05:26:51;;;;;;;;;;;;;;;19.02;66.91;100733.59;5015283;28;1070;-54
2021/05/08 05:29:17;;;;;;;;;;;;;;;19.02;67.06;100758.56;5015086;28;999;-54
2021/05/08 05:31:43;;;;;;;;;;;;;;;19.01;67.10;100764.91;5015378;28;1981;-54
2021/05/08 05:34:09;;;;;;;;;;;;;;;19.03;66.94;100762.09;5014893;28;1123;-54
2021/05/08 05:36:35;;;;;;;;;;;;;;;19.02;67.08;100766.63;5015121;28;1109;-54
2021/05/08 05:39:02;;;;;;;;;;;;;;;19.02;66.98;100785.38;5015155;28;1073;-54
2021/05/08 05:41:28;;;;;;;;;;;;;;;19.01;66.90;100775.63;5014762;28;1092;-54
2021/05/08 05:43:54;;;;;;;;;;;;;;;19.02;67.04;100766.63;5015119;28;987;-54
2021/05/08 05:46:20;;;;;;;;;;;;;;;19.04;66.60;100759.28;5014859;28;1305;-54
2021/05/08 05:48:46;;;;;;;;;;;;;;;19.05;66.57;100782.41;5015021;28;987;-54
2021/05/08 05:51:12;;;;;;;;;;;;;;;19.04;66.76;100783.41;5014703;28;1906;-54
2021/05/08 05:53:38;;;;;;;;;;;;;;;19.05;66.51;100773.53;5014929;28;983;-54
2021/05/08 05:56:05;;;;;;;;;;;;;;;19.05;66.82;100795.81;5014955;28;982;-54
2021/05/08 05:58:31;;;;;;;;;;;;;;;19.07;66.62;100785.81;5014990;28;1003;-54
2021/05/08 06:00:57;;;;;;;;;;;;;;;19.10;66.68;100790.06;5014551;28;1373;-54
2021/05/08 06:03:24;;;;;;;;;;;;;;;19.08;66.86;100800.91;5014898;28;1069;-54
2021/05/08 06:05:50;;;;;;;;;;;;;;;19.08;66.54;100805.44;5014503;28;1015;-54
2021/05/08 06:08:16;;;;;;;;;;;;;;;19.11;66.62;100804.31;5014862;28;1073;-54
2021/05/08 06:10:42;;;;;;;;;;;;;;;19.13;66.36;100810.38;5014383;28;1214;-54
2021/05/08 06:13:09;;;;;;;;;;;;;;;19.11;66.51;100818.53;5014461;28;1902;-54
2021/05/08 06:15:35;;;;;;;;;;;;;;;19.14;66.13;100806.69;5014832;28;1010;-54
2021/05/08 06:18:01;;;;;;;;;;;;;;;19.16;66.15;100826.16;5014429;28;1067;-53
2021/05/08 06:20:27;;;;;;;;;;;;;;;19.16;66.13;100820.81;5014771;28;999;-54
2021/05/08 06:22:52;;;;;;;;;;;;;;;19.12;66.17;100816.69;5015821;28;1293;-54
2021/05/08 06:25:20;;;;;;;;;;;;;;;19.14;66.13;100822.78;5018375;28;1067;-54
2021/05/08 06:27:46;;;;;;;;;;;;;;;19.16;66.11;100835.09;5018392;28;1011;-54
2021/05/08 06:30:14;;;;;;;;;;;;;;;19.18;65.98;100851.00;5017944;28;1126;-54
2021/05/08 06:32:40;;;;;;;;;;;;;;;19.20;65.59;100849.03;5018123;28;1915;-54
2021/05/08 06:35:06;;;;;;;;;;;;;;;19.20;66.04;100862.44;5017878;28;1067;-54
2021/05/08 06:37:32;;;;;;;;;;;;;;;19.21;66.15;100856.13;5018173;28;1050;-54
2021/05/08 06:39:58;;;;;;;;;;;;;;;19.20;66.18;100859.75;5018118;28;987;-54
2021/05/08 06:42:24;;;;;;;;;;;;;;;19.24;66.03;100862.06;5018044;28;1073;-54
2021/05/08 06:44:50;;;;;;;;;;;;;;;19.27;65.63;100877.03;5017773;28;1043;-54
2021/05/08 06:47:17;;;;;;;;;;;;;;;19.28;65.73;100868.00;5017967;28;1074;-54
2021/05/08 06:49:43;;;;;;;;;;;;;;;19.27;65.86;100882.38;5017897;28;983;-54
2021/05/08 06:52:09;;;;;;;;;;;;;;;19.28;65.82;100892.16;5017510;28;1973;-54
2021/05/08 06:54:35;;;;;;;;;;;;;;;19.30;65.82;100891.97;5017412;28;1213;-54
2021/05/08 06:57:01;;;;;;;;;;;;;;;19.31;65.75;100877.63;5017493;28;1063;-54
2021/05/08 06:59:27;;;;;;;;;;;;;;;19.32;65.30;100868.56;5017753;28;1076;-54
2021/05/08 07:01:53;;;;;;;;;;;;;;;19.31;65.90;100877.63;5017352;28;1382;-53
2021/05/08 07:04:20;;;;;;;;;;;;;;;19.30;65.92;100873.22;5017660;28;1171;-54
2021/05/08 07:06:47;;;;;;;;;;;;;;;19.30;65.58;100882.13;5017538;28;978;-54
2021/05/08 07:09:13;;;;;;;;;;;;;;;19.32;65.64;100884.66;5017550;28;1054;-54
2021/05/08 07:11:39;;;;;;;;;;;;;;;19.31;65.50;100883.81;5017001;28;1910;-54
2021/05/08 07:14:05;;;;;;;;;;;;;;;19.32;65.12;100900.75;5017503;28;983;-54
2021/05/08 07:16:31;;;;;;;;;;;;;;;19.35;65.73;100897.81;5017125;28;1068;-54
2021/05/08 07:18:57;;;;;;;;;;;;;;;19.32;65.64;100895.38;5016993;28;985;-54
2021/05/08 07:21:24;;;;;;;;;;;;;;;19.35;65.50;100895.97;5017354;28;995;-54
2021/05/08 07:23:50;;;;;;;;;;;;;;;19.35;65.40;100889.75;5016874;28;982;-54
2021/05/08 07:26:16;;;;;;;;;;;;;;;19.32;65.53;100906.09;5017245;28;1070;-54
2021/05/08 07:28:42;;;;;;;;;;;;;;;19.31;65.28;100913.31;5016940;28;1122;-54
2021/05/08 07:31:08;;;;;;;;;;;;;;;19.31;65.94;100915.16;5017165;28;1055;-54
2021/05/08 07:33:34;;;;;;;;;;;;;;;19.33;65.92;100899.78;5016177;28;1969;-54
2021/05/08 07:36:00;;;;;;;;;;;;;;;19.32;65.85;100912.34;5016255;28;1051;-54
2021/05/08 07:38:27;;;;;;;;;;;;;;;19.32;65.58;100912.34;5017062;28;1081;-54
2021/05/08 07:40:54;;;;;;;;;;;;;;;19.33;65.54;100911.34;5016976;28;967;-54
2021/05/08 07:43:20;;;;;;;;;;;;;;;19.34;65.65;100929.16;5016617;28;990;-54
2021/05/08 07:45:46;;;;;;;;;;;;;;;19.35;65.77;100925.47;5016895;28;1073;-54
2021/05/08 07:48:12;;;;;;;;;;;;;;;19.34;65.94;100920.22;5016852;28;1030;-54
2021/05/08 07:50:38;;;;;;;;;;;;;;;19.35;66.07;100928.16;5016847;28;1058;-54
2021/05/08 07:53:04;;;;;;;;;;;;;;;19.35;65.85;100933.50;5016333;28;1906;-54
2021/05/08 07:55:32;;;;;;;;;;;;;;;19.33;65.66;100922.06;5016724;28;995;-54
2021/05/08 07:57:58;;;;;;;;;;;;;;;19.35;65.89;100930.00;5016675;28;970;-54
2021/05/08 08:00:24;;;;;;;;;;;;;;;19.35;65.85;100928.16;5016622;28;983;-54
2021/05/08 08:02:51;;;;;;;;;;;;;;;19.35;65.66;100917.41;5016472;28;1483;-54
2021/05/08 08:05:17;;;;;;;;;;;;;;;19.33;65.45;100923.91;5016480;28;991;-54
2021/05/08 08:07:43;;;;;;;;;;;;;;;19.33;65.89;100914.03;5016154;28;1063;-54
2021/05/08 08:10:10;;;;;;;;;;;;;;;19.35;66.04;100925.47;5016466;28;995;-54
2021/05/08 08:12:37;;;;;;;;;;;;;;;19.36;65.78;100935.22;5015927;28;1907;-54
2021/05/08 08:15:04;;;;;;;;;;;;;;;19.35;66.10;100927.31;5016404;28;1070;-54
2021/05/08 08:17:32;;;;;;;;;;;;;;;19.34;66.08;100941.69;5015972;28;1044;-54
2021/05/08 08:19:58;;;;;;;;;;;;;;;19.36;65.69;100943.25;5016261;28;991;-54
2021/05/08 08:22:24;;;;;;;;;;;;;;;19.33;65.53;100935.47;5015948;28;1118;-54
2021/05/08 08:24:50;;;;;;;;;;;;;;;19.36;66.01;100955.81;5016224;28;995;-54
2021/05/08 08:27:16;;;;;;;;;;;;;;;19.34;65.51;100947.03;5016059;28;1055;-54
2021/05/08 08:29:43;;;;;;;;;;;;;;;19.34;65.52;100952.41;5015749;28;1048;-54
2021/05/08 08:32:09;;;;;;;;;;;;;;;19.32;66.27;100955.25;5015711;28;1906;-54
2021/05/08 08:34:36;;;;;;;;;;;;;;;19.32;65.67;100959.72;5015995;28;991;-54
2021/05/08 08:37:03;;;;;;;;;;;;;;;19.33;65.66;100962.28;5015684;28;1035;-54
2021/05/08 08:39:29;;;;;;;;;;;;;;;19.30;65.75;100951.84;5015930;28;975;-54
2021/05/08 08:41:55;;;;;;;;;;;;;;;19.30;65.97;100956.34;5015792;28;984;-54
2021/05/08 08:44:21;;;;;;;;;;;;;;;19.29;65.98;100955.50;5015790;28;967;-54
2021/05/08 08:46:48;;;;;;;;;;;;;;;19.30;65.82;100959.88;5015198;28;1067;-54
2021/05/08 08:49:14;;;;;;;;;;;;;;;19.32;65.67;100954.38;5015745;28;975;-54
2021/05/08 08:51:41;;;;;;;;;;;;;;;19.29;65.66;100960.84;5015377;28;1971;-54
2021/05/08 08:54:07;;;;;;;;;;;;;;;19.29;65.81;100958.19;5015167;28;1123;-54
2021/05/08 08:56:38;;;;;;;;;;;;;;;19.30;65.80;100957.22;5015442;28;1987;-53
2021/05/08 08:59:12;;;;;;;;;;;;;;;19.32;65.90;100959.72;5015255;28;1076;-54
2021/05/08 09:01:38;;;;;;;;;;;;;;;19.33;65.77;100956.94;5015483;28;1404;-54
2021/05/08 09:04:05;;;;;;;;;;;;;;;19.33;65.52;100943.53;5015191;28;1056;-54
2021/05/08 09:06:31;;;;;;;;;;;;;;;19.32;65.74;100959.72;5015145;28;1211;-54
2021/05/08 09:08:57;;;;;;;;;;;;;;;19.33;66.17;100956.94;5015429;28;983;-54
2021/05/08 09:11:23;;;;;;;;;;;;;;;19.36;65.20;100945.94;5015162;28;1293;-54
2021/05/08 09:14:10;;;;;;;;;;;;;;;19.38;65.27;100957.38;5015018;28;1965;-54
2021/05/08 09:16:36;;;;;;;;;;;;;;;19.35;65.97;100946.91;5015014;28;2170;-54
2021/05/08 09:19:17;;;;;;;;;;;;;;;19.37;65.96;100944.94;5015272;28;983;-54
2021/05/08 09:21:44;;;;;;;;;;;;;;;19.37;65.59;100949.47;5014876;28;1860;-54
2021/05/08 09:24:10;;;;;;;;;;;;;;;19.36;66.07;100927.19;5015192;28;1025;-54
2021/05/08 09:26:37;;;;;;;;;;;;;;;19.38;65.83;100943.13;5015255;28;1065;-54
2021/05/08 09:29:03;;;;;;;;;;;;;;;19.37;65.78;100946.78;5015197;28;1040;-53
2021/05/08 09:31:29;;;;;;;;;;;;;;;19.38;66.11;100949.34;5014988;28;1054;-54
2021/05/08 09:33:56;;;;;;;;;;;;;;;19.39;65.83;100942.97;5015171;28;1410;-54
2021/05/08 09:36:22;;;;;;;;;;;;;;;19.41;65.81;100942.84;5015147;28;1003;-54
2021/05/08 09:38:49;;;;;;;;;;;;;;;19.39;65.63;100945.66;5014821;28;1063;-54
2021/05/08 09:41:16;;;;;;;;;;;;;;;19.36;65.76;100959.34;5014806;28;1060;-54
2021/05/08 09:43:43;;;;;;;;;;;;;;;19.39;65.85;100960.91;5015142;28;994;-54
2021/05/08 09:46:22;;;;;;;;;;;;;;;19.40;65.13;100957.25;5014826;28;1118;-54
2021/05/08 09:48:48;;;;;;;;;;;;;;;19.41;65.44;100949.06;5015101;28;1048;-54
2021/05/08 09:51:21;;;;;;;;;;;;;;;19.41;65.43;100958.94;5015079;28;987;-54
2021/05/08 09:53:47;;;;;;;;;;;;;;;19.39;65.59;100940.31;5014625;28;1914;-54
2021/05/08 09:56:31;;;;;;;;;;;;;;;19.41;65.22;100951.75;5014640;28;1067;-54
2021/05/08 09:59:18;;;;;;;;;;;;;;;19.41;65.69;100946.38;5017817;28;1056;-54
2021/05/08 10:01:44;;;;;;;;;;;;;;;19.43;65.31;100954.28;5018352;28;1395;-54
2021/05/08 10:04:25;;;;;;;;;;;;;;;19.43;65.44;100956.97;5018469;28;1138;-54
2021/05/08 10:07:04;;;;;;;;;;;;;;;19.41;65.94;100951.75;5018425;28;1118;-54
2021/05/08 10:09:30;;;;;;;;;;;;;;;19.43;65.82;100948.94;5018442;28;1028;-54
2021/05/08 10:11:56;;;;;;;;;;;;;;;19.40;66.06;100952.75;5018072;28;1972;-54
2021/05/08 10:14:24;;;;;;;;;;;;;;;19.42;65.67;100956.13;5018640;28;1006;-54
2021/05/08 10:16:50;;;;;;;;;;;;;;;19.42;65.87;100956.13;5018282;28;1090;-54
2021/05/08 10:19:16;;;;;;;;;;;;;;;19.43;65.36;100963.19;5018225;28;1079;-54
2021/05/08 10:21:43;;;;;;;;;;;;;;;19.39;65.67;100960.91;5018526;28;1073;-54
2021/05/08 10:24:10;;;;;;;;;;;;;;;19.40;65.95;100958.09;5018438;28;1065;-54
2021/05/08 10:26:36;;;;;;;;;;;;;;;19.37;66.20;100958.34;5018414;28;1078;-54
2021/05/08 10:29:02;;;;;;;;;;;;;;;19.42;66.08;100955.28;5018364;28;1057;-54
2021/05/08 10:31:29;;;;;;;;;;;;;;;19.42;66.26;100956.13;5018284;28;1011;-54
2021/05/08 10:33:55;;;;;;;;;;;;;;;19.35;66.15;100949.59;5018199;28;1906;-54
2021/05/08 10:36:35;;;;;;;;;;;;;;;19.37;66.02;100954.84;5018243;28;995;-54
2021/05/08 10:39:05;;;;;;;;;;;;;;;19.37;66.34;100954.84;5017796;28;1977;-54
2021/05/08 10:41:46;;;;;;;;;;;;;;;19.35;65.67;100946.91;5017963;28;971;-54
2021/05/08 10:44:12;;;;;;;;;;;;;;;19.35;66.42;100949.59;5017674;28;1785;-54
2021/05/08 10:46:52;;;;;;;;;;;;;;;19.35;66.17;100941.56;5017702;28;1033;-54
2021/05/08 10:49:19;;;;;;;;;;;;;;;19.36;65.88;100937.03;5017971;28;1006;-54
2021/05/08 10:51:54;;;;;;;;;;;;;;;19.36;65.63;100951.31;5017849;28;1906;-54
2021/05/08 10:54:35;;;;;;;;;;;;;;;19.39;65.88;100950.19;5017475;28;1175;-54
2021/05/08 10:57:13;;;;;;;;;;;;;;;19.38;65.92;100948.50;5017383;28;1431;-54
2021/05/08 11:00:07;;;;;;;;;;;;;;;19.39;66.14;100936.78;5017425;28;1047;-53
2021/05/08 11:02:52;;;;;;;;;;;;;;;19.42;65.50;100941.88;5017207;28;1454;-54
2021/05/08 11:05:22;;;;;;;;;;;;;;;19.42;66.08;100949.94;5017338;28;896;-54
2021/05/08 11:07:48;;;;;;;;;;;;;;;19.41;66.00;100935.66;5017329;28;1115;-54
2021/05/08 11:10:33;;;;;;;;;;;;;;;19.47;65.08;100956.56;5016925;28;1040;-53
2021/05/08 11:13:05;;;;;;;;;;;;;;;19.42;65.88;100947.25;5017518;28;1973;-54
2021/05/08 11:15:46;;;;;;;;;;;;;;;19.41;65.65;100943.69;5017515;28;967;-54
2021/05/08 11:18:32;;;;;;;;;;;;;;;19.43;65.92;100933.69;5016999;28;1576;-54
2021/05/08 11:20:59;;;;;;;;;;;;;;;19.43;65.89;100951.63;5017428;28;1014;-54
2021/05/08 11:23:25;;;;;;;;;;;;;;;19.44;65.80;100939.91;5016956;28;1047;-54
2021/05/08 11:25:52;;;;;;;;;;;;;;;19.42;65.43;100944.56;5017285;28;1019;-54
2021/05/08 11:28:18;;;;;;;;;;;;;;;19.41;65.53;100934.81;5017325;28;1006;-54
2021/05/08 11:30:53;;;;;;;;;;;;;;;19.42;66.18;100949.94;5017197;28;1096;-54
2021/05/08 11:33:20;;;;;;;;;;;;;;;19.42;65.93;100945.41;5017042;28;1902;-54
2021/05/08 11:35:59;;;;;;;;;;;;;;;19.39;65.77;100948.34;5016856;28;1060;-54
2021/05/08 11:38:25;;;;;;;;;;;;;;;19.39;66.11;100934.94;5016795;28;1043;-54
2021/05/08 11:40:51;;;;;;;;;;;;;;;19.37;66.29;100931.53;5016979;28;1077;-54
2021/05/08 11:43:24;;;;;;;;;;;;;;;19.38;65.94;100935.94;5016858;28;1007;-54
2021/05/08 11:45:50;;;;;;;;;;;;;;;19.40;66.06;100933.13;5016937;28;1071;-54
2021/05/08 11:48:16;;;;;;;;;;;;;;;19.38;66.37;100943.97;5016865;28;987;-54
2021/05/08 11:50:43;;;;;;;;;;;;;;;19.38;66.40;100933.25;5016579;28;1067;-54
2021/05/08 11:53:16;;;;;;;;;;;;;;;19.39;66.11;100936.78;5016387;28;1902;-53
2021/05/08 11:55:44;;;;;;;;;;;;;;;19.37;66.00;100925.34;5016699;28;1043;-54
2021/05/08 11:58:10;;;;;;;;;;;;;;;19.36;66.36;100937.03;5016702;28;987;-54
2021/05/08 12:00:36;;;;;;;;;;;;;;;19.37;65.91;100931.53;5016352;28;1051;-54
2021/05/08 12:03:08;;;;;;;;;;;;;;;19.35;66.22;100921.94;5016582;28;1408;-54
2021/05/08 12:05:38;;;;;;;;;;;;;;;19.32;66.57;100909.66;5016512;28;982;-54
2021/05/08 12:08:04;;;;;;;;;;;;;;;19.32;66.39;100912.34;5016242;28;1076;-54
2021/05/08 12:10:34;;;;;;;;;;;;;;;19.32;66.28;100912.34;5016278;28;1188;-54
2021/05/08 12:13:00;;;;;;;;;;;;;;;19.32;66.74;100928.44;5016313;28;1914;-54
2021/05/08 12:15:26;;;;;;;;;;;;;;;19.32;66.63;100917.72;5016071;28;1091;-54
2021/05/08 12:17:54;;;;;;;;;;;;;;;19.34;66.04;100917.53;5016295;28;1003;-54
2021/05/08 12:20:21;;;;;;;;;;;;;;;19.35;66.21;100909.38;5015387;28;1067;-53
2021/05/08 12:22:47;;;;;;;;;;;;;;;19.36;65.89;100918.25;5015929;28;1055;-54
2021/05/08 12:25:15;;;;;;;;;;;;;;;19.36;66.21;100910.22;5016222;28;979;-54
2021/05/08 12:27:42;;;;;;;;;;;;;;;19.33;66.18;100913.19;5015855;28;1223;-54
2021/05/08 12:30:08;;;;;;;;;;;;;;;19.33;66.46;100914.03;5016043;28;1016;-54
2021/05/08 12:32:34;;;;;;;;;;;;;;;19.32;66.02;100898.94;5015983;28;1906;-54
2021/05/08 12:35:00;;;;;;;;;;;;;;;19.34;65.92;100906.81;5016184;28;1871;-54
2021/05/08 12:37:26;;;;;;;;;;;;;;;19.39;66.02;100909.97;5015976;28;992;-54
2021/05/08 12:39:52;;;;;;;;;;;;;;;19.37;66.42;100919.97;5015636;28;1032;-54
2021/05/08 12:42:18;;;;;;;;;;;;;;;19.35;66.04;100906.69;5015552;28;1052;-54
2021/05/08 12:44:46;;;;;;;;;;;;;;;19.36;65.76;100908.41;5015869;28;1096;-54
2021/05/08 12:47:16;;;;;;;;;;;;;;;19.34;66.19;100910.38;5015787;28;966;-54
2021/05/08 12:50:01;;;;;;;;;;;;;;;19.38;65.73;100913.66;5015489;28;1020;-54